sensor_id;sensor_type;location;lat;lon;timestamp;P1;durP1;ratioP1;P2;durP2;ratioP2
7359;SDS011;3720;48.274;7.796;2023-04-03T00:00:07;4.55;;;3.30;;
7359;SDS011;3720;48.274;7.796;2023-04-03T00:02:40;4.07;;;3.28;;
7359;SDS011;3720;48.274;7.796;2023-04-03T00:05:12;3.85;;;3.22;;
7359;SDS011;3720;48.274;7.796;2023-04-03T00:07:44;4.43;;;3.08;;
7359;SDS011;3720;48.274;7.796;2023-04-03T00:10:18;4.20;;;3.20;;
7359;SDS011;3720;48.274;7.796;2023-04-03T00:12:50;4.28;;;3.10;;
7359;SDS011;3720;48.274;7.796;2023-04-03T00:15:22;3.90;;;3.10;;
7359;SDS011;3720;48.274;7.796;2023-04-03T00:17:54;4.68;;;3.35;;
7359;SDS011;3720;48.274;7.796;2023-04-03T00:20:27;3.75;;;3.00;;
7359;SDS011;3720;48.274;7.796;2023-04-03T00:22:59;6.47;;;3.20;;
7359;SDS011;3720;48.274;7.796;2023-04-03T00:25:33;5.55;;;3.25;;
7359;SDS011;3720;48.274;7.796;2023-04-03T00:28:05;5.20;;;3.10;;
7359;SDS011;3720;48.274;7.796;2023-04-03T00:30:37;5.57;;;3.45;;
7359;SDS011;3720;48.274;7.796;2023-04-03T00:33:10;4.65;;;3.28;;
7359;SDS011;3720;48.274;7.796;2023-04-03T00:35:43;3.90;;;3.10;;
7359;SDS011;3720;48.274;7.796;2023-04-03T00:38:15;4.40;;;3.17;;
7359;SDS011;3720;48.274;7.796;2023-04-03T00:40:49;3.92;;;3.05;;
7359;SDS011;3720;48.274;7.796;2023-04-03T00:43:21;6.55;;;4.20;;
7359;SDS011;3720;48.274;7.796;2023-04-03T00:45:56;6.93;;;4.20;;
7359;SDS011;3720;48.274;7.796;2023-04-03T00:48:31;5.97;;;3.30;;
7359;SDS011;3720;48.274;7.796;2023-04-03T00:51:05;4.78;;;2.83;;
7359;SDS011;3720;48.274;7.796;2023-04-03T00:53:43;3.50;;;2.80;;
7359;SDS011;3720;48.274;7.796;2023-04-03T00:58:53;4.50;;;2.90;;
7359;SDS011;3720;48.274;7.796;2023-04-03T01:01:28;3.17;;;2.80;;
7359;SDS011;3720;48.274;7.796;2023-04-03T01:04:01;6.15;;;2.95;;
7359;SDS011;3720;48.274;7.796;2023-04-03T01:06:36;3.40;;;2.83;;
7359;SDS011;3720;48.274;7.796;2023-04-03T01:09:08;4.20;;;2.80;;
7359;SDS011;3720;48.274;7.796;2023-04-03T01:11:41;4.35;;;2.80;;
7359;SDS011;3720;48.274;7.796;2023-04-03T01:14:13;4.72;;;2.65;;
7359;SDS011;3720;48.274;7.796;2023-04-03T01:16:51;3.90;;;2.97;;
7359;SDS011;3720;48.274;7.796;2023-04-03T01:19:24;4.72;;;2.70;;
7359;SDS011;3720;48.274;7.796;2023-04-03T01:22:01;4.03;;;2.70;;
7359;SDS011;3720;48.274;7.796;2023-04-03T01:24:47;3.30;;;2.75;;
7359;SDS011;3720;48.274;7.796;2023-04-03T01:27:20;4.55;;;2.90;;
7359;SDS011;3720;48.274;7.796;2023-04-03T01:29:52;4.47;;;3.00;;
7359;SDS011;3720;48.274;7.796;2023-04-03T01:32:25;4.45;;;3.17;;
7359;SDS011;3720;48.274;7.796;2023-04-03T01:34:57;4.97;;;3.13;;
7359;SDS011;3720;48.274;7.796;2023-04-03T01:37:29;6.97;;;3.15;;
7359;SDS011;3720;48.274;7.796;2023-04-03T01:40:01;4.40;;;3.15;;
7359;SDS011;3720;48.274;7.796;2023-04-03T01:42:34;3.25;;;2.90;;
7359;SDS011;3720;48.274;7.796;2023-04-03T01:45:06;5.10;;;2.95;;
7359;SDS011;3720;48.274;7.796;2023-04-03T01:47:40;3.80;;;3.15;;
7359;SDS011;3720;48.274;7.796;2023-04-03T01:50:12;3.78;;;2.95;;
7359;SDS011;3720;48.274;7.796;2023-04-03T01:52:44;3.65;;;2.88;;
7359;SDS011;3720;48.274;7.796;2023-04-03T01:55:16;3.70;;;2.88;;
7359;SDS011;3720;48.274;7.796;2023-04-03T01:57:48;5.38;;;3.30;;
7359;SDS011;3720;48.274;7.796;2023-04-03T02:00:20;3.15;;;2.85;;
7359;SDS011;3720;48.274;7.796;2023-04-03T02:02:54;4.30;;;2.92;;
7359;SDS011;3720;48.274;7.796;2023-04-03T02:05:26;4.78;;;3.33;;
7359;SDS011;3720;48.274;7.796;2023-04-03T02:07:58;4.05;;;3.00;;
7359;SDS011;3720;48.274;7.796;2023-04-03T02:10:31;4.80;;;3.25;;
7359;SDS011;3720;48.274;7.796;2023-04-03T02:13:03;3.78;;;2.97;;
7359;SDS011;3720;48.274;7.796;2023-04-03T02:15:37;4.45;;;3.10;;
7359;SDS011;3720;48.274;7.796;2023-04-03T02:18:11;4.13;;;3.42;;
7359;SDS011;3720;48.274;7.796;2023-04-03T02:20:43;5.43;;;3.08;;
7359;SDS011;3720;48.274;7.796;2023-04-03T02:23:15;3.88;;;2.85;;
7359;SDS011;3720;48.274;7.796;2023-04-03T02:25:47;4.85;;;3.30;;
7359;SDS011;3720;48.274;7.796;2023-04-03T02:28:20;4.15;;;3.15;;
7359;SDS011;3720;48.274;7.796;2023-04-03T02:30:52;5.07;;;2.90;;
7359;SDS011;3720;48.274;7.796;2023-04-03T02:33:25;5.78;;;3.20;;
7359;SDS011;3720;48.274;7.796;2023-04-03T02:35:57;5.68;;;3.25;;
7359;SDS011;3720;48.274;7.796;2023-04-03T02:38:29;4.95;;;3.13;;
7359;SDS011;3720;48.274;7.796;2023-04-03T02:41:01;4.32;;;3.10;;
7359;SDS011;3720;48.274;7.796;2023-04-03T02:43:33;4.82;;;3.22;;
7359;SDS011;3720;48.274;7.796;2023-04-03T02:46:06;4.55;;;3.20;;
7359;SDS011;3720;48.274;7.796;2023-04-03T02:48:40;3.95;;;3.30;;
7359;SDS011;3720;48.274;7.796;2023-04-03T02:51:12;5.15;;;3.30;;
7359;SDS011;3720;48.274;7.796;2023-04-03T02:53:43;4.07;;;3.30;;
7359;SDS011;3720;48.274;7.796;2023-04-03T02:56:15;4.93;;;3.30;;
7359;SDS011;3720;48.274;7.796;2023-04-03T02:58:48;7.03;;;3.45;;
7359;SDS011;3720;48.274;7.796;2023-04-03T03:01:20;5.95;;;3.85;;
7359;SDS011;3720;48.274;7.796;2023-04-03T03:03:53;11.15;;;5.35;;
7359;SDS011;3720;48.274;7.796;2023-04-03T03:06:25;10.63;;;5.47;;
7359;SDS011;3720;48.274;7.796;2023-04-03T03:08:58;10.63;;;5.45;;
7359;SDS011;3720;48.274;7.796;2023-04-03T03:11:29;8.88;;;4.63;;
7359;SDS011;3720;48.274;7.796;2023-04-03T03:14:01;8.25;;;4.03;;
7359;SDS011;3720;48.274;7.796;2023-04-03T03:16:33;5.88;;;3.42;;
7359;SDS011;3720;48.274;7.796;2023-04-03T03:19:06;4.80;;;3.40;;
7359;SDS011;3720;48.274;7.796;2023-04-03T03:21:39;6.82;;;3.70;;
7359;SDS011;3720;48.274;7.796;2023-04-03T03:24:11;4.35;;;3.33;;
7359;SDS011;3720;48.274;7.796;2023-04-03T03:26:43;5.15;;;3.80;;
7359;SDS011;3720;48.274;7.796;2023-04-03T03:29:15;6.90;;;3.80;;
7359;SDS011;3720;48.274;7.796;2023-04-03T03:31:47;5.35;;;3.33;;
7359;SDS011;3720;48.274;7.796;2023-04-03T03:34:20;6.40;;;3.35;;
7359;SDS011;3720;48.274;7.796;2023-04-03T03:36:52;6.45;;;3.33;;
7359;SDS011;3720;48.274;7.796;2023-04-03T03:39:25;4.28;;;3.10;;
7359;SDS011;3720;48.274;7.796;2023-04-03T03:41:57;4.50;;;3.30;;
7359;SDS011;3720;48.274;7.796;2023-04-03T03:44:28;4.47;;;3.38;;
7359;SDS011;3720;48.274;7.796;2023-04-03T03:47:00;4.43;;;3.17;;
7359;SDS011;3720;48.274;7.796;2023-04-03T03:49:34;4.85;;;3.15;;
7359;SDS011;3720;48.274;7.796;2023-04-03T03:52:06;6.30;;;3.40;;
7359;SDS011;3720;48.274;7.796;2023-04-03T03:54:40;6.47;;;4.22;;
7359;SDS011;3720;48.274;7.796;2023-04-03T03:57:12;7.82;;;4.72;;
7359;SDS011;3720;48.274;7.796;2023-04-03T03:59:45;6.82;;;4.45;;
7359;SDS011;3720;48.274;7.796;2023-04-03T04:02:17;8.65;;;4.57;;
7359;SDS011;3720;48.274;7.796;2023-04-03T04:04:50;7.50;;;4.53;;
7359;SDS011;3720;48.274;7.796;2023-04-03T04:07:22;6.63;;;4.32;;
7359;SDS011;3720;48.274;7.796;2023-04-03T04:09:54;8.43;;;5.00;;
7359;SDS011;3720;48.274;7.796;2023-04-03T04:12:26;8.60;;;5.55;;
7359;SDS011;3720;48.274;7.796;2023-04-03T04:14:58;10.77;;;5.80;;
7359;SDS011;3720;48.274;7.796;2023-04-03T04:17:30;8.98;;;5.65;;
7359;SDS011;3720;48.274;7.796;2023-04-03T04:20:03;9.55;;;5.13;;
7359;SDS011;3720;48.274;7.796;2023-04-03T04:22:36;7.80;;;4.70;;
7359;SDS011;3720;48.274;7.796;2023-04-03T04:25:08;6.45;;;3.92;;
7359;SDS011;3720;48.274;7.796;2023-04-03T04:27:40;4.15;;;3.17;;
7359;SDS011;3720;48.274;7.796;2023-04-03T04:30:14;4.90;;;3.42;;
7359;SDS011;3720;48.274;7.796;2023-04-03T04:32:46;4.40;;;3.30;;
7359;SDS011;3720;48.274;7.796;2023-04-03T04:35:19;5.03;;;3.40;;
7359;SDS011;3720;48.274;7.796;2023-04-03T04:37:51;4.95;;;3.40;;
7359;SDS011;3720;48.274;7.796;2023-04-03T04:40:23;4.53;;;3.38;;
7359;SDS011;3720;48.274;7.796;2023-04-03T04:42:55;4.95;;;3.53;;
7359;SDS011;3720;48.274;7.796;2023-04-03T04:45:27;6.00;;;3.90;;
7359;SDS011;3720;48.274;7.796;2023-04-03T04:47:59;4.53;;;3.35;;
7359;SDS011;3720;48.274;7.796;2023-04-03T04:50:32;4.72;;;3.28;;
7359;SDS011;3720;48.274;7.796;2023-04-03T04:53:04;4.57;;;3.40;;
7359;SDS011;3720;48.274;7.796;2023-04-03T04:55:36;4.97;;;3.45;;
7359;SDS011;3720;48.274;7.796;2023-04-03T04:58:08;5.13;;;3.53;;
7359;SDS011;3720;48.274;7.796;2023-04-03T05:00:40;5.68;;;4.05;;
7359;SDS011;3720;48.274;7.796;2023-04-03T05:03:12;4.68;;;3.55;;
7359;SDS011;3720;48.274;7.796;2023-04-03T05:05:46;5.57;;;3.85;;
7359;SDS011;3720;48.274;7.796;2023-04-03T05:08:18;7.70;;;3.67;;
7359;SDS011;3720;48.274;7.796;2023-04-03T05:10:51;4.97;;;3.35;;
7359;SDS011;3720;48.274;7.796;2023-04-03T05:13:23;5.43;;;3.67;;
7359;SDS011;3720;48.274;7.796;2023-04-03T05:15:55;5.75;;;3.58;;
7359;SDS011;3720;48.274;7.796;2023-04-03T05:18:27;4.75;;;3.28;;
7359;SDS011;3720;48.274;7.796;2023-04-03T05:21:00;5.28;;;3.60;;
7359;SDS011;3720;48.274;7.796;2023-04-03T05:23:32;5.03;;;3.47;;
7359;SDS011;3720;48.274;7.796;2023-04-03T05:26:04;4.13;;;3.40;;
7359;SDS011;3720;48.274;7.796;2023-04-03T05:28:37;4.78;;;3.33;;
7359;SDS011;3720;48.274;7.796;2023-04-03T05:31:08;4.47;;;3.55;;
7359;SDS011;3720;48.274;7.796;2023-04-03T05:33:40;6.85;;;4.53;;
7359;SDS011;3720;48.274;7.796;2023-04-03T05:36:14;7.45;;;4.70;;
7359;SDS011;3720;48.274;7.796;2023-04-03T05:38:46;6.45;;;4.53;;
7359;SDS011;3720;48.274;7.796;2023-04-03T05:41:18;6.32;;;4.75;;
7359;SDS011;3720;48.274;7.796;2023-04-03T05:43:51;7.65;;;4.40;;
7359;SDS011;3720;48.274;7.796;2023-04-03T05:46:24;6.32;;;4.68;;
7359;SDS011;3720;48.274;7.796;2023-04-03T05:48:56;6.10;;;4.07;;
7359;SDS011;3720;48.274;7.796;2023-04-03T05:51:30;6.13;;;4.57;;
7359;SDS011;3720;48.274;7.796;2023-04-03T05:54:06;8.70;;;5.10;;
7359;SDS011;3720;48.274;7.796;2023-04-03T05:56:42;7.38;;;5.10;;
7359;SDS011;3720;48.274;7.796;2023-04-03T05:59:15;5.88;;;4.20;;
7359;SDS011;3720;48.274;7.796;2023-04-03T06:01:47;6.57;;;4.57;;
7359;SDS011;3720;48.274;7.796;2023-04-03T06:04:20;5.45;;;4.18;;
7359;SDS011;3720;48.274;7.796;2023-04-03T06:06:53;6.22;;;4.30;;
7359;SDS011;3720;48.274;7.796;2023-04-03T06:09:27;6.43;;;4.25;;
7359;SDS011;3720;48.274;7.796;2023-04-03T06:12:00;5.90;;;4.00;;
7359;SDS011;3720;48.274;7.796;2023-04-03T06:14:32;4.93;;;3.97;;
7359;SDS011;3720;48.274;7.796;2023-04-03T06:17:04;5.38;;;4.30;;
7359;SDS011;3720;48.274;7.796;2023-04-03T06:19:36;5.90;;;4.13;;
7359;SDS011;3720;48.274;7.796;2023-04-03T06:22:09;5.75;;;4.13;;
7359;SDS011;3720;48.274;7.796;2023-04-03T06:24:42;8.70;;;4.78;;
7359;SDS011;3720;48.274;7.796;2023-04-03T06:27:15;5.75;;;4.10;;
7359;SDS011;3720;48.274;7.796;2023-04-03T06:29:47;5.05;;;3.92;;
7359;SDS011;3720;48.274;7.796;2023-04-03T06:32:19;5.57;;;3.95;;
7359;SDS011;3720;48.274;7.796;2023-04-03T06:34:51;5.35;;;4.05;;
7359;SDS011;3720;48.274;7.796;2023-04-03T06:37:25;6.80;;;4.63;;
7359;SDS011;3720;48.274;7.796;2023-04-03T06:39:58;6.32;;;4.30;;
7359;SDS011;3720;48.274;7.796;2023-04-03T06:42:31;6.72;;;4.25;;
7359;SDS011;3720;48.274;7.796;2023-04-03T06:45:04;5.13;;;3.90;;
7359;SDS011;3720;48.274;7.796;2023-04-03T06:47:37;5.75;;;4.50;;
7359;SDS011;3720;48.274;7.796;2023-04-03T06:50:10;5.15;;;3.90;;
7359;SDS011;3720;48.274;7.796;2023-04-03T06:52:45;5.82;;;4.25;;
7359;SDS011;3720;48.274;7.796;2023-04-03T06:55:17;5.53;;;3.75;;
7359;SDS011;3720;48.274;7.796;2023-04-03T06:57:49;4.93;;;3.80;;
7359;SDS011;3720;48.274;7.796;2023-04-03T07:00:21;4.90;;;3.38;;
7359;SDS011;3720;48.274;7.796;2023-04-03T07:02:54;4.78;;;3.60;;
7359;SDS011;3720;48.274;7.796;2023-04-03T07:05:27;4.55;;;3.60;;
7359;SDS011;3720;48.274;7.796;2023-04-03T07:08:00;4.85;;;3.55;;
7359;SDS011;3720;48.274;7.796;2023-04-03T07:10:32;4.07;;;3.25;;
7359;SDS011;3720;48.274;7.796;2023-04-03T07:13:04;5.18;;;3.53;;
7359;SDS011;3720;48.274;7.796;2023-04-03T07:15:36;4.68;;;3.30;;
7359;SDS011;3720;48.274;7.796;2023-04-03T07:18:08;4.45;;;3.30;;
7359;SDS011;3720;48.274;7.796;2023-04-03T07:20:41;4.05;;;3.28;;
7359;SDS011;3720;48.274;7.796;2023-04-03T07:23:14;4.55;;;3.45;;
7359;SDS011;3720;48.274;7.796;2023-04-03T07:25:47;3.65;;;3.20;;
7359;SDS011;3720;48.274;7.796;2023-04-03T07:28:20;4.43;;;3.45;;
7359;SDS011;3720;48.274;7.796;2023-04-03T07:31:00;4.05;;;3.30;;
7359;SDS011;3720;48.274;7.796;2023-04-03T07:33:34;5.75;;;3.78;;
7359;SDS011;3720;48.274;7.796;2023-04-03T07:36:07;4.97;;;3.15;;
7359;SDS011;3720;48.274;7.796;2023-04-03T07:38:40;4.03;;;3.20;;
7359;SDS011;3720;48.274;7.796;2023-04-03T07:41:13;4.68;;;3.17;;
7359;SDS011;3720;48.274;7.796;2023-04-03T07:43:47;3.55;;;3.00;;
7359;SDS011;3720;48.274;7.796;2023-04-03T07:46:20;5.00;;;3.00;;
7359;SDS011;3720;48.274;7.796;2023-04-03T07:48:52;3.92;;;2.72;;
7359;SDS011;3720;48.274;7.796;2023-04-03T07:51:24;5.95;;;3.20;;
7359;SDS011;3720;48.274;7.796;2023-04-03T07:53:58;4.10;;;3.30;;
7359;SDS011;3720;48.274;7.796;2023-04-03T07:56:30;3.85;;;2.83;;
7359;SDS011;3720;48.274;7.796;2023-04-03T07:59:03;4.55;;;2.97;;
7359;SDS011;3720;48.274;7.796;2023-04-03T08:01:35;4.35;;;3.30;;
7359;SDS011;3720;48.274;7.796;2023-04-03T08:04:07;3.85;;;3.20;;
7359;SDS011;3720;48.274;7.796;2023-04-03T08:06:38;4.68;;;3.22;;
7359;SDS011;3720;48.274;7.796;2023-04-03T08:09:12;5.57;;;3.33;;
7359;SDS011;3720;48.274;7.796;2023-04-03T08:11:45;5.38;;;3.30;;
7359;SDS011;3720;48.274;7.796;2023-04-03T08:14:16;3.83;;;2.88;;
7359;SDS011;3720;48.274;7.796;2023-04-03T08:16:48;4.50;;;3.50;;
7359;SDS011;3720;48.274;7.796;2023-04-03T08:19:21;4.00;;;3.03;;
7359;SDS011;3720;48.274;7.796;2023-04-03T08:21:53;6.03;;;3.22;;
7359;SDS011;3720;48.274;7.796;2023-04-03T08:24:28;6.07;;;3.25;;
7359;SDS011;3720;48.274;7.796;2023-04-03T08:27:00;4.53;;;3.20;;
7359;SDS011;3720;48.274;7.796;2023-04-03T08:29:34;4.65;;;3.30;;
7359;SDS011;3720;48.274;7.796;2023-04-03T08:32:07;5.53;;;2.78;;
7359;SDS011;3720;48.274;7.796;2023-04-03T08:34:39;4.20;;;3.05;;
7359;SDS011;3720;48.274;7.796;2023-04-03T08:37:12;4.93;;;3.22;;
7359;SDS011;3720;48.274;7.796;2023-04-03T08:39:45;4.28;;;3.20;;
7359;SDS011;3720;48.274;7.796;2023-04-03T08:42:19;4.63;;;3.10;;
7359;SDS011;3720;48.274;7.796;2023-04-03T08:45:01;4.13;;;2.90;;
7359;SDS011;3720;48.274;7.796;2023-04-03T08:47:40;4.72;;;3.08;;
7359;SDS011;3720;48.274;7.796;2023-04-03T08:50:18;5.32;;;3.20;;
7359;SDS011;3720;48.274;7.796;2023-04-03T08:52:52;4.55;;;3.33;;
7359;SDS011;3720;48.274;7.796;2023-04-03T08:55:29;3.40;;;2.88;;
7359;SDS011;3720;48.274;7.796;2023-04-03T08:58:05;4.55;;;2.83;;
7359;SDS011;3720;48.274;7.796;2023-04-03T09:00:41;4.55;;;3.28;;
7359;SDS011;3720;48.274;7.796;2023-04-03T09:03:18;3.70;;;3.10;;
7359;SDS011;3720;48.274;7.796;2023-04-03T09:05:53;3.83;;;2.78;;
7359;SDS011;3720;48.274;7.796;2023-04-03T09:08:28;5.43;;;2.90;;
7359;SDS011;3720;48.274;7.796;2023-04-03T09:11:09;5.28;;;3.13;;
7359;SDS011;3720;48.274;7.796;2023-04-03T09:13:49;4.53;;;3.20;;
7359;SDS011;3720;48.274;7.796;2023-04-03T09:16:27;3.78;;;2.80;;
7359;SDS011;3720;48.274;7.796;2023-04-03T09:19:06;4.55;;;2.90;;
7359;SDS011;3720;48.274;7.796;2023-04-03T09:21:44;5.43;;;3.08;;
7359;SDS011;3720;48.274;7.796;2023-04-03T09:24:16;10.75;;;3.72;;
7359;SDS011;3720;48.274;7.796;2023-04-03T09:26:52;3.88;;;2.92;;
7359;SDS011;3720;48.274;7.796;2023-04-03T09:29:29;4.93;;;2.72;;
7359;SDS011;3720;48.274;7.796;2023-04-03T09:32:02;3.33;;;2.42;;
7359;SDS011;3720;48.274;7.796;2023-04-03T09:34:49;3.22;;;2.58;;
7359;SDS011;3720;48.274;7.796;2023-04-03T09:37:34;3.50;;;2.70;;
7359;SDS011;3720;48.274;7.796;2023-04-03T09:40:31;3.65;;;2.72;;
7359;SDS011;3720;48.274;7.796;2023-04-03T09:43:24;4.28;;;2.50;;
7359;SDS011;3720;48.274;7.796;2023-04-03T09:48:51;3.22;;;2.40;;
7359;SDS011;3720;48.274;7.796;2023-04-03T09:51:27;3.00;;;2.30;;
7359;SDS011;3720;48.274;7.796;2023-04-03T09:54:01;3.63;;;2.35;;
7359;SDS011;3720;48.274;7.796;2023-04-03T09:57:07;2.75;;;2.30;;
7359;SDS011;3720;48.274;7.796;2023-04-03T09:59:46;4.45;;;2.47;;
7359;SDS011;3720;48.274;7.796;2023-04-03T10:02:22;3.00;;;2.40;;
7359;SDS011;3720;48.274;7.796;2023-04-03T10:05:02;3.45;;;2.03;;
7359;SDS011;3720;48.274;7.796;2023-04-03T10:07:36;4.90;;;2.25;;
7359;SDS011;3720;48.274;7.796;2023-04-03T10:10:16;3.17;;;2.17;;
7359;SDS011;3720;48.274;7.796;2023-04-03T10:13:01;2.72;;;2.00;;
7359;SDS011;3720;48.274;7.796;2023-04-03T10:15:39;3.72;;;2.28;;
7359;SDS011;3720;48.274;7.796;2023-04-03T10:18:19;2.67;;;2.10;;
7359;SDS011;3720;48.274;7.796;2023-04-03T10:21:02;4.40;;;2.10;;
7359;SDS011;3720;48.274;7.796;2023-04-03T10:23:39;2.97;;;2.10;;
7359;SDS011;3720;48.274;7.796;2023-04-03T10:26:16;2.78;;;2.08;;
7359;SDS011;3720;48.274;7.796;2023-04-03T10:28:55;3.60;;;2.10;;
7359;SDS011;3720;48.274;7.796;2023-04-03T10:31:36;3.45;;;2.40;;
7359;SDS011;3720;48.274;7.796;2023-04-03T10:34:17;2.30;;;2.10;;
7359;SDS011;3720;48.274;7.796;2023-04-03T10:36:55;3.63;;;2.25;;
7359;SDS011;3720;48.274;7.796;2023-04-03T10:39:35;4.50;;;2.10;;
7359;SDS011;3720;48.274;7.796;2023-04-03T10:42:13;4.07;;;2.20;;
7359;SDS011;3720;48.274;7.796;2023-04-03T10:44:57;3.28;;;1.90;;
7359;SDS011;3720;48.274;7.796;2023-04-03T10:47:42;3.65;;;1.90;;
7359;SDS011;3720;48.274;7.796;2023-04-03T10:50:29;2.45;;;1.80;;
7359;SDS011;3720;48.274;7.796;2023-04-03T10:53:13;3.20;;;2.03;;
7359;SDS011;3720;48.274;7.796;2023-04-03T10:55:53;2.33;;;1.77;;
7359;SDS011;3720;48.274;7.796;2023-04-03T10:58:32;2.90;;;1.80;;
7359;SDS011;3720;48.274;7.796;2023-04-03T11:01:08;2.58;;;1.83;;
7359;SDS011;3720;48.274;7.796;2023-04-03T11:06:19;2.38;;;1.90;;
7359;SDS011;3720;48.274;7.796;2023-04-03T11:08:55;2.42;;;1.95;;
7359;SDS011;3720;48.274;7.796;2023-04-03T11:11:34;3.63;;;2.78;;
7359;SDS011;3720;48.274;7.796;2023-04-03T11:14:09;2.55;;;1.70;;
7359;SDS011;3720;48.274;7.796;2023-04-03T11:16:46;1.70;;;1.60;;
7359;SDS011;3720;48.274;7.796;2023-04-03T11:19:24;2.50;;;2.08;;
7359;SDS011;3720;48.274;7.796;2023-04-03T11:22:08;3.17;;;1.83;;
7359;SDS011;3720;48.274;7.796;2023-04-03T11:24:46;2.00;;;1.60;;
7359;SDS011;3720;48.274;7.796;2023-04-03T11:27:37;3.17;;;2.10;;
7359;SDS011;3720;48.274;7.796;2023-04-03T11:30:14;3.25;;;2.10;;
7359;SDS011;3720;48.274;7.796;2023-04-03T11:32:57;2.40;;;2.00;;
7359;SDS011;3720;48.274;7.796;2023-04-03T11:35:57;1.92;;;1.75;;
7359;SDS011;3720;48.274;7.796;2023-04-03T11:38:35;2.10;;;1.90;;
7359;SDS011;3720;48.274;7.796;2023-04-03T11:41:10;2.97;;;2.60;;
7359;SDS011;3720;48.274;7.796;2023-04-03T11:43:58;2.08;;;1.80;;
7359;SDS011;3720;48.274;7.796;2023-04-03T11:46:48;2.88;;;1.77;;
7359;SDS011;3720;48.274;7.796;2023-04-03T11:58:35;2.00;;;1.58;;
7359;SDS011;3720;48.274;7.796;2023-04-03T12:01:09;2.50;;;1.80;;
7359;SDS011;3720;48.274;7.796;2023-04-03T12:12:31;2.03;;;1.77;;
7359;SDS011;3720;48.274;7.796;2023-04-03T12:15:17;1.92;;;1.75;;
7359;SDS011;3720;48.274;7.796;2023-04-03T12:17:55;1.80;;;1.58;;
7359;SDS011;3720;48.274;7.796;2023-04-03T12:23:33;2.78;;;1.98;;
7359;SDS011;3720;48.274;7.796;2023-04-03T12:26:21;2.60;;;1.80;;
7359;SDS011;3720;48.274;7.796;2023-04-03T12:28:56;2.03;;;1.83;;
7359;SDS011;3720;48.274;7.796;2023-04-03T12:31:32;3.47;;;1.80;;
7359;SDS011;3720;48.274;7.796;2023-04-03T12:34:18;4.55;;;1.90;;
7359;SDS011;3720;48.274;7.796;2023-04-03T12:37:15;2.17;;;1.80;;
7359;SDS011;3720;48.274;7.796;2023-04-03T12:40:01;2.67;;;1.90;;
7359;SDS011;3720;48.274;7.796;2023-04-03T12:45:39;2.58;;;2.00;;
7359;SDS011;3720;48.274;7.796;2023-04-03T12:48:15;2.70;;;2.10;;
7359;SDS011;3720;48.274;7.796;2023-04-03T12:50:50;2.63;;;1.90;;
7359;SDS011;3720;48.274;7.796;2023-04-03T12:53:23;2.03;;;1.80;;
7359;SDS011;3720;48.274;7.796;2023-04-03T12:55:58;4.57;;;2.05;;
7359;SDS011;3720;48.274;7.796;2023-04-03T12:58:54;3.38;;;2.08;;
7359;SDS011;3720;48.274;7.796;2023-04-03T13:01:27;2.47;;;1.70;;
7359;SDS011;3720;48.274;7.796;2023-04-03T13:03:59;5.68;;;2.05;;
7359;SDS011;3720;48.274;7.796;2023-04-03T13:06:32;2.30;;;1.80;;
7359;SDS011;3720;48.274;7.796;2023-04-03T13:09:18;3.40;;;2.13;;
7359;SDS011;3720;48.274;7.796;2023-04-03T13:11:56;4.60;;;2.00;;
7359;SDS011;3720;48.274;7.796;2023-04-03T13:14:32;3.25;;;2.40;;
7359;SDS011;3720;48.274;7.796;2023-04-03T13:17:09;3.63;;;2.40;;
7359;SDS011;3720;48.274;7.796;2023-04-03T13:19:44;3.30;;;2.35;;
7359;SDS011;3720;48.274;7.796;2023-04-03T13:22:21;2.67;;;1.95;;
7359;SDS011;3720;48.274;7.796;2023-04-03T13:24:59;1.88;;;1.60;;
7359;SDS011;3720;48.274;7.796;2023-04-03T13:27:36;2.28;;;1.80;;
7359;SDS011;3720;48.274;7.796;2023-04-03T13:30:20;2.72;;;2.03;;
7359;SDS011;3720;48.274;7.796;2023-04-03T13:32:56;2.92;;;2.10;;
7359;SDS011;3720;48.274;7.796;2023-04-03T13:35:35;5.80;;;2.30;;
7359;SDS011;3720;48.274;7.796;2023-04-03T13:38:21;3.70;;;2.38;;
7359;SDS011;3720;48.274;7.796;2023-04-03T13:40:56;2.58;;;2.10;;
7359;SDS011;3720;48.274;7.796;2023-04-03T13:43:31;3.30;;;2.60;;
7359;SDS011;3720;48.274;7.796;2023-04-03T13:49:17;4.85;;;2.33;;
7359;SDS011;3720;48.274;7.796;2023-04-03T13:51:52;3.85;;;2.30;;
7359;SDS011;3720;48.274;7.796;2023-04-03T13:54:28;8.05;;;4.15;;
7359;SDS011;3720;48.274;7.796;2023-04-03T13:57:03;2.88;;;2.30;;
7359;SDS011;3720;48.274;7.796;2023-04-03T13:59:43;4.97;;;3.45;;
7359;SDS011;3720;48.274;7.796;2023-04-03T14:02:18;4.53;;;2.85;;
7359;SDS011;3720;48.274;7.796;2023-04-03T14:04:54;4.53;;;2.70;;
7359;SDS011;3720;48.274;7.796;2023-04-03T14:07:30;4.93;;;2.80;;
7359;SDS011;3720;48.274;7.796;2023-04-03T14:10:02;4.18;;;2.50;;
7359;SDS011;3720;48.274;7.796;2023-04-03T14:12:35;6.28;;;2.17;;
7359;SDS011;3720;48.274;7.796;2023-04-03T14:15:12;4.25;;;2.45;;
7359;SDS011;3720;48.274;7.796;2023-04-03T14:17:49;3.53;;;2.30;;
7359;SDS011;3720;48.274;7.796;2023-04-03T14:20:24;2.90;;;2.45;;
7359;SDS011;3720;48.274;7.796;2023-04-03T14:22:57;5.38;;;2.63;;
7359;SDS011;3720;48.274;7.796;2023-04-03T14:25:30;3.08;;;2.20;;
7359;SDS011;3720;48.274;7.796;2023-04-03T14:28:06;2.38;;;1.95;;
7359;SDS011;3720;48.274;7.796;2023-04-03T14:30:47;3.13;;;2.15;;
7359;SDS011;3720;48.274;7.796;2023-04-03T14:33:21;2.97;;;2.00;;
7359;SDS011;3720;48.274;7.796;2023-04-03T14:35:55;4.15;;;2.65;;
7359;SDS011;3720;48.274;7.796;2023-04-03T14:38:28;5.28;;;2.38;;
7359;SDS011;3720;48.274;7.796;2023-04-03T14:41:00;3.10;;;2.17;;
7359;SDS011;3720;48.274;7.796;2023-04-03T14:43:32;4.75;;;2.45;;
7359;SDS011;3720;48.274;7.796;2023-04-03T14:46:04;5.35;;;3.22;;
7359;SDS011;3720;48.274;7.796;2023-04-03T14:48:40;5.60;;;2.53;;
7359;SDS011;3720;48.274;7.796;2023-04-03T14:51:15;4.82;;;2.15;;
7359;SDS011;3720;48.274;7.796;2023-04-03T14:53:47;8.63;;;5.13;;
7359;SDS011;3720;48.274;7.796;2023-04-03T14:56:21;7.82;;;3.80;;
7359;SDS011;3720;48.274;7.796;2023-04-03T14:58:57;4.55;;;2.60;;
7359;SDS011;3720;48.274;7.796;2023-04-03T15:01:30;5.32;;;2.33;;
7359;SDS011;3720;48.274;7.796;2023-04-03T15:04:04;4.40;;;2.55;;
7359;SDS011;3720;48.274;7.796;2023-04-03T15:06:42;3.25;;;2.45;;
7359;SDS011;3720;48.274;7.796;2023-04-03T15:09:18;2.65;;;2.10;;
7359;SDS011;3720;48.274;7.796;2023-04-03T15:11:52;5.65;;;2.40;;
7359;SDS011;3720;48.274;7.796;2023-04-03T15:14:26;3.20;;;2.20;;
7359;SDS011;3720;48.274;7.796;2023-04-03T15:16:58;5.20;;;2.60;;
7359;SDS011;3720;48.274;7.796;2023-04-03T15:19:31;6.15;;;2.58;;
7359;SDS011;3720;48.274;7.796;2023-04-03T15:22:09;3.70;;;2.30;;
7359;SDS011;3720;48.274;7.796;2023-04-03T15:24:45;4.82;;;2.65;;
7359;SDS011;3720;48.274;7.796;2023-04-03T15:27:17;3.38;;;2.38;;
7359;SDS011;3720;48.274;7.796;2023-04-03T15:29:49;4.63;;;2.50;;
7359;SDS011;3720;48.274;7.796;2023-04-03T15:32:21;4.43;;;2.30;;
7359;SDS011;3720;48.274;7.796;2023-04-03T15:34:53;4.53;;;2.30;;
7359;SDS011;3720;48.274;7.796;2023-04-03T15:37:26;5.38;;;2.20;;
7359;SDS011;3720;48.274;7.796;2023-04-03T15:39:59;4.43;;;2.13;;
7359;SDS011;3720;48.274;7.796;2023-04-03T15:42:31;3.95;;;2.17;;
7359;SDS011;3720;48.274;7.796;2023-04-03T15:45:03;3.03;;;1.90;;
7359;SDS011;3720;48.274;7.796;2023-04-03T15:47:35;4.18;;;2.20;;
7359;SDS011;3720;48.274;7.796;2023-04-03T15:50:08;4.00;;;2.20;;
7359;SDS011;3720;48.274;7.796;2023-04-03T15:52:43;6.63;;;2.50;;
7359;SDS011;3720;48.274;7.796;2023-04-03T15:55:14;4.43;;;2.53;;
7359;SDS011;3720;48.274;7.796;2023-04-03T15:57:46;3.25;;;2.40;;
7359;SDS011;3720;48.274;7.796;2023-04-03T16:00:19;4.28;;;2.20;;
7359;SDS011;3720;48.274;7.796;2023-04-03T16:02:52;4.57;;;2.45;;
7359;SDS011;3720;48.274;7.796;2023-04-03T16:05:27;4.85;;;3.00;;
7359;SDS011;3720;48.274;7.796;2023-04-03T16:08:01;6.10;;;2.40;;
7359;SDS011;3720;48.274;7.796;2023-04-03T16:10:33;4.15;;;2.42;;
7359;SDS011;3720;48.274;7.796;2023-04-03T16:13:05;5.03;;;2.60;;
7359;SDS011;3720;48.274;7.796;2023-04-03T16:15:38;2.78;;;1.83;;
7359;SDS011;3720;48.274;7.796;2023-04-03T16:18:10;3.42;;;2.33;;
7359;SDS011;3720;48.274;7.796;2023-04-03T16:20:43;4.35;;;2.58;;
7359;SDS011;3720;48.274;7.796;2023-04-03T16:23:17;3.53;;;2.78;;
7359;SDS011;3720;48.274;7.796;2023-04-03T16:25:50;4.18;;;2.47;;
7359;SDS011;3720;48.274;7.796;2023-04-03T16:28:21;5.15;;;3.30;;
7359;SDS011;3720;48.274;7.796;2023-04-03T16:30:53;5.28;;;2.67;;
7359;SDS011;3720;48.274;7.796;2023-04-03T16:33:26;8.18;;;3.63;;
7359;SDS011;3720;48.274;7.796;2023-04-03T16:35:58;9.20;;;5.25;;